MSC Ingrid — HOHA — position and weather

sailwx.info

Track history (hours):
 
Tides and Currents Weather Stations Pressure Air Temp Water Temp Dewpoint Dewpoint Depression Visibility Wind Speed Wind Dir Waves Ship Positions

MSC Ingrid

Last reported at 2018-Feb-24 06:30 UTC. Time now 2018-Feb-24 06:37 UTC.
Position N 37°59' W 009°55'.

Length 294 m; draft 12.8 m.

Type: Ship (hazmat cat A). MMSI: 354505000.

Date/timePositionNaut miles runAvg speedWind from/ knotsBaromVisibWave heightAir tempDewpointWater temp
2018-Feb-24 06:30N 37°59' W 009°55'1020.3
2018-Feb-24 06:00N 38°09' W 009°58'1020.5
2018-Feb-24 05:30N 38°19' W 010°02'1020.6
2018-Feb-24 05:00N 38°28' W 010°04'1120.1
2018-Feb-24 04:28N 38°39' W 010°06'920.0
2018-Feb-24 04:00N 38°48' W 010°07'1019.9
2018-Feb-24 03:31N 38°58' W 010°07'1020.5
2018-Feb-24 03:01N 39°08' W 010°06'1020.3
2018-Feb-24 02:30N 39°19' W 010°06'1120.3
2018-Feb-24 01:57N 39°30' W 010°06'4020.2
2018-Feb-23 23:58N 40°10' W 010°05'51019.6
2018-Feb-22 22:00N 48°14' W 006°22'3919.7
2018-Feb-22 20:01N 48°48' W 005°54'11420.1
2018-Feb-22 14:22N 49°48' W 003°27'720.0
2018-Feb-22 14:01N 49°52' W 003°17'714.2
2018-Feb-22 13:30N 49°55' W 003°07'815.2
2018-Feb-22 13:00N 49°58' W 002°56'919.0
2018-Feb-22 12:30N 50°01' W 002°42'1018.2
2018-Feb-22 11:57N 50°03' W 002°27'1617.5
2018-Feb-22 11:02N 50°07' W 002°02'117.7
2018-Feb-22 10:58N 50°07' W 002°01'817.7
2018-Feb-22 10:30N 50°10' W 001°49'918.4
2018-Feb-22 10:01N 50°12' W 001°35'1019.2
2018-Feb-22 09:30N 50°15' W 001°20'3421.0
2018-Feb-22 07:53N 50°24' W 000°29'821.6
2018-Feb-22 07:30N 50°26' W 000°17'1121.6
2018-Feb-22 07:01N 50°29' W 000°00'1121.5
2018-Feb-22 06:30N 50°32' E 000°16'1121.3
2018-Feb-22 06:01N 50°36' E 000°32'918.7
2018-Feb-22 05:31N 50°41' E 000°44'815.9
2018-Feb-22 05:01N 50°46' E 000°54'815.2
2018-Feb-22 04:30N 50°51' E 001°03'714.5
2018-Feb-22 04:00N 50°56' E 001°11'713.9
2018-Feb-22 03:30N 51°00' E 001°19'713.9
2018-Feb-22 03:01N 51°05' E 001°28'714.8
2018-Feb-22 02:30N 51°09' E 001°38'815.2
2018-Feb-22 02:00N 51°14' E 001°46'816.7
2018-Feb-22 01:30N 51°22' E 001°51'917.3
2018-Feb-22 01:00N 51°29' E 001°59'1020.6
2018-Feb-22 00:31N 51°36' E 002°11'1121.8
2018-Feb-22 00:00N 51°45' E 002°23'5219.5
2018-Feb-21 21:21N 52°04' E 003°40'616.7
2018-Feb-21 21:00N 52°05' E 003°50'3 5.8
2018-Feb-21 20:30N 52°05' E 003°54'4 7.6
2018-Feb-21 20:00N 52°01' E 003°57'611.6
2018-Feb-21 19:30N 51°58' E 004°05'1 2.4
2018-Feb-21 19:00N 51°58' E 004°04'0 0.4
2018-Feb-21 18:30N 51°58' E 004°04'0 0.0
2018-Feb-21 18:00N 51°58' E 004°04'0 0.0
2018-Feb-21 17:30N 51°58' E 004°04'0 0.0
2018-Feb-21 17:00N 51°58' E 004°04'0 0.0
2018-Feb-21 16:30N 51°58' E 004°04'0 0.0
2018-Feb-21 16:00N 51°58' E 004°04'0 0.0
2018-Feb-21 15:30N 51°58' E 004°04'0 0.0
2018-Feb-21 15:00N 51°58' E 004°04'0 0.1
2018-Feb-21 14:30N 51°58' E 004°04'0 0.0
2018-Feb-21 14:00N 51°58' E 004°04'0 0.0
2018-Feb-21 13:30N 51°58' E 004°04'0 0.0
2018-Feb-21 13:00N 51°58' E 004°04'0 0.0
2018-Feb-21 12:30N 51°58' E 004°04'0 0.0
2018-Feb-21 12:00N 51°58' E 004°04'0 0.0
2018-Feb-21 11:30N 51°58' E 004°04'0 0.0
2018-Feb-21 11:00N 51°58' E 004°04'0 0.0
2018-Feb-21 10:30N 51°58' E 004°04'0 0.0
2018-Feb-21 10:00N 51°58' E 004°04'0 0.0
2018-Feb-21 09:30N 51°58' E 004°04'0 0.0
2018-Feb-21 09:00N 51°58' E 004°04'0 0.0
2018-Feb-21 08:30N 51°58' E 004°04'0 0.0
2018-Feb-21 08:00N 51°58' E 004°04'0 0.0
2018-Feb-21 07:30N 51°58' E 004°04'0 0.0
2018-Feb-21 07:00N 51°58' E 004°04'0 0.0
2018-Feb-21 06:30N 51°58' E 004°04'0 0.0
2018-Feb-21 06:00N 51°58' E 004°04'0 0.0
2018-Feb-21 05:30N 51°58' E 004°04'0 0.0
2018-Feb-21 05:00N 51°58' E 004°04'0 0.0
2018-Feb-21 04:30N 51°58' E 004°04'0 0.0
2018-Feb-21 04:00N 51°58' E 004°04'0 0.0
2018-Feb-21 03:30N 51°58' E 004°04'0 0.0
2018-Feb-21 03:00N 51°58' E 004°04'0 0.0
2018-Feb-21 02:30N 51°58' E 004°04'0 0.0
2018-Feb-21 02:00N 51°58' E 004°04'0 0.0
2018-Feb-21 01:30N 51°58' E 004°04'0 0.0
2018-Feb-21 01:00N 51°58' E 004°04'0 0.0
2018-Feb-21 00:30N 51°58' E 004°04'0 0.0
2018-Feb-21 00:00N 51°58' E 004°04'0 0.0
2018-Feb-20 23:30N 51°58' E 004°04'0 0.0
2018-Feb-20 23:00N 51°58' E 004°04'0 0.0
2018-Feb-20 22:30N 51°58' E 004°04'0 0.0
2018-Feb-20 22:00N 51°58' E 004°04'0 0.0
2018-Feb-20 21:30N 51°58' E 004°04'0 0.0
2018-Feb-20 21:00N 51°58' E 004°04'0 0.0
2018-Feb-20 20:30N 51°58' E 004°04'0 0.0
2018-Feb-20 20:00N 51°58' E 004°04'0 0.0
2018-Feb-20 19:30N 51°58' E 004°04'0 0.0
2018-Feb-20 19:00N 51°58' E 004°04'0 0.0
2018-Feb-20 18:30N 51°58' E 004°04'0 0.0
2018-Feb-20 18:00N 51°58' E 004°04'0 0.0
2018-Feb-20 17:30N 51°58' E 004°04'0 0.0
2018-Feb-20 17:00N 51°58' E 004°04'0 0.0
2018-Feb-20 16:30N 51°58' E 004°04'0 0.0
2018-Feb-20 16:00N 51°58' E 004°04'0 0.0
2018-Feb-20 15:30N 51°58' E 004°04'1 1.8
2018-Feb-20 15:00N 51°58' E 004°05'4 8.9
2018-Feb-20 14:30N 52°00' E 003°59'713.8
2018-Feb-20 14:00N 52°01' E 003°48'510.1
2018-Feb-20 13:30N 51°59' E 003°40'713.2
2018-Feb-20 13:00N 51°56' E 003°31'1812.6
2018-Feb-20 11:36N 51°42' E 003°13'211.8
2018-Feb-20 11:25N 51°40' E 003°13'716.8
2018-Feb-20 11:00N 51°34' E 003°09'816.1
2018-Feb-20 10:31N 51°28' E 003°01'510.9
2018-Feb-20 10:00N 51°24' E 003°07'917.8
2018-Feb-20 09:30N 51°24' E 003°21'815.8
2018-Feb-20 09:00N 51°26' E 003°34'611.6
2018-Feb-20 08:30N 51°24' E 003°43'715.0
2018-Feb-20 08:00N 51°22' E 003°54'611.8
2018-Feb-20 07:31N 51°25' E 004°02'611.3
2018-Feb-20 07:01N 51°24' E 004°11'611.0
2018-Feb-20 06:30N 51°19' E 004°16'1 2.9
2018-Feb-20 06:00N 51°18' E 004°16'0 0.0
2018-Feb-20 05:30N 51°18' E 004°16'0 0.0
2018-Feb-20 05:00N 51°18' E 004°16'0 0.0
2018-Feb-20 04:30N 51°18' E 004°16'0 0.0
2018-Feb-20 04:00N 51°18' E 004°16'0 0.0
2018-Feb-20 03:30N 51°18' E 004°16'0 0.0
2018-Feb-20 03:00N 51°18' E 004°16'0 0.0
2018-Feb-20 02:30N 51°18' E 004°16'0 0.0
2018-Feb-20 02:00N 51°18' E 004°16'0 0.0
2018-Feb-20 01:30N 51°18' E 004°16'0 0.0
2018-Feb-20 01:00N 51°18' E 004°16'0 0.0
2018-Feb-20 00:30N 51°18' E 004°16'0 0.0
2018-Feb-20 00:00N 51°18' E 004°16'0 0.0
2018-Feb-19 23:30N 51°18' E 004°16'0 0.0
2018-Feb-19 23:00N 51°18' E 004°16'0 0.0
2018-Feb-19 22:30N 51°18' E 004°16'0 0.0
2018-Feb-19 22:00N 51°18' E 004°16'0 0.1
2018-Feb-19 21:30N 51°18' E 004°16'0 0.1
2018-Feb-19 21:00N 51°18' E 004°16'0 0.0
2018-Feb-19 20:30N 51°18' E 004°16'0 0.0
2018-Feb-19 20:00N 51°18' E 004°16'0 0.0
2018-Feb-19 19:30N 51°18' E 004°16'0 0.1
2018-Feb-19 19:00N 51°18' E 004°16'0 0.0
2018-Feb-19 18:30N 51°18' E 004°16'0 0.0
2018-Feb-19 18:00N 51°18' E 004°16'0 0.0
2018-Feb-19 17:30N 51°18' E 004°16'0 0.0
2018-Feb-19 17:00N 51°18' E 004°16'0 0.0
2018-Feb-19 16:30N 51°18' E 004°16'0 0.0
2018-Feb-19 16:00N 51°18' E 004°16'0 0.0
2018-Feb-19 15:30N 51°18' E 004°16'0 0.0
2018-Feb-19 15:00N 51°18' E 004°16'0 0.0
2018-Feb-19 14:30N 51°18' E 004°16'0 0.0
2018-Feb-19 14:00N 51°18' E 004°16'0 0.0
2018-Feb-19 13:30N 51°18' E 004°16'0 0.0
2018-Feb-19 13:00N 51°18' E 004°16'0 0.0
2018-Feb-19 12:30N 51°18' E 004°16'0 0.1
2018-Feb-19 12:00N 51°18' E 004°16'0 0.1
2018-Feb-19 11:30N 51°18' E 004°16'0 0.0
2018-Feb-19 11:00N 51°18' E 004°16'0 0.0
2018-Feb-19 10:30N 51°18' E 004°16'0 0.0
2018-Feb-19 10:00N 51°18' E 004°16'0 0.1
2018-Feb-19 09:30N 51°18' E 004°16'0 0.1
2018-Feb-19 09:00N 51°18' E 004°16'0 0.0
2018-Feb-19 08:30N 51°18' E 004°16'0 0.0
2018-Feb-19 08:00N 51°18' E 004°16'0 0.1
2018-Feb-19 07:30N 51°18' E 004°16'0 0.0
2018-Feb-19 07:00N 51°18' E 004°16'0 0.1
2018-Feb-19 06:30N 51°18' E 004°16'0 0.0
2018-Feb-19 06:00N 51°18' E 004°16'0 0.0
2018-Feb-19 05:30N 51°18' E 004°16'0 0.0
2018-Feb-19 05:00N 51°18' E 004°16'0 0.0
2018-Feb-19 04:30N 51°18' E 004°16'0 0.0
2018-Feb-19 04:00N 51°18' E 004°16'0 0.0
2018-Feb-19 03:30N 51°18' E 004°16'0 0.0
2018-Feb-19 03:00N 51°18' E 004°16'0 0.0
2018-Feb-19 02:30N 51°18' E 004°16'0 0.0
2018-Feb-19 02:00N 51°18' E 004°16'0 0.0
2018-Feb-19 01:30N 51°18' E 004°16'0 0.0
2018-Feb-19 01:00N 51°18' E 004°16'0 0.1
2018-Feb-19 00:30N 51°18' E 004°16'0 0.0
2018-Feb-19 00:00N 51°18' E 004°16'0 0.0
2018-Feb-18 23:30N 51°18' E 004°16'0 0.0
2018-Feb-18 23:00N 51°18' E 004°16'0 0.0
2018-Feb-18 22:30N 51°18' E 004°16'0 0.0
2018-Feb-18 22:00N 51°18' E 004°16'0 0.1
2018-Feb-18 21:30N 51°18' E 004°16'0 0.1
2018-Feb-18 21:00N 51°18' E 004°16'0 0.0
2018-Feb-18 20:30N 51°18' E 004°16'0 0.0
2018-Feb-18 20:00N 51°18' E 004°16'1 1.5
2018-Feb-18 19:30N 51°19' E 004°16'3 5.7
2018-Feb-18 19:00N 51°21' E 004°14'4 7.6
2018-Feb-18 18:30N 51°22' E 004°08'5 9.1
2018-Feb-18 18:00N 51°24' E 004°02'3 6.2
2018-Feb-18 17:30N 51°23' E 003°57'510.8
2018-Feb-18 17:00N 51°21' E 003°50'612.1
2018-Feb-18 16:31N 51°25' E 003°43'510.6
2018-Feb-18 16:00N 51°25' E 003°34'510.3
2018-Feb-18 15:30N 51°25' E 003°26'611.9
2018-Feb-18 15:00N 51°24' E 003°16'714.0
2018-Feb-18 14:30N 51°24' E 003°05'611.8
2018-Feb-18 14:01N 51°22' E 002°56'714.2
2018-Feb-18 13:30N 51°22' E 002°45'4 8.1
2018-Feb-18 13:00N 51°22' E 002°38'4 8.4
2018-Feb-18 12:29N 51°22' E 002°32'713.6
2018-Feb-18 12:01N 51°20' E 002°22'714.0
2018-Feb-18 11:30N 51°19' E 002°11'714.2
2018-Feb-18 11:00N 51°22' E 002°01'815.7
2018-Feb-18 10:30N 51°28' E 001°52'918.5
2018-Feb-18 10:00N 51°37' E 001°47'1019.1
2018-Feb-18 09:31N 51°46' E 001°44'713.7
2018-Feb-18 09:00N 51°51' E 001°37'510.9
2018-Feb-18 08:31N 51°56' E 001°32'714.4
2018-Feb-18 08:01N 51°55' E 001°21'3 5.2
2018-Feb-18 07:29N 51°58' E 001°18'0 0.0
2018-Feb-18 06:59N 51°58' E 001°18'0 0.0
2018-Feb-18 06:29N 51°58' E 001°18'0 0.0
2018-Feb-18 05:59N 51°58' E 001°18'0 0.0
2018-Feb-18 05:29N 51°58' E 001°18'0 0.0
2018-Feb-18 04:58N 51°58' E 001°18'0 0.0
2018-Feb-18 04:28N 51°58' E 001°18'0 0.0
2018-Feb-18 03:58N 51°58' E 001°18'0 0.0
2018-Feb-18 03:28N 51°58' E 001°18'0 0.0
2018-Feb-18 02:58N 51°58' E 001°18'0 0.0
2018-Feb-18 02:28N 51°58' E 001°18'0 0.0
2018-Feb-18 01:58N 51°58' E 001°18'0 0.0
2018-Feb-18 01:28N 51°58' E 001°18'0 0.0
2018-Feb-18 00:58N 51°58' E 001°18'0 0.0
2018-Feb-18 00:28N 51°58' E 001°18'0 0.0
2018-Feb-17 23:58N 51°58' E 001°18'0 0.0
2018-Feb-17 23:28N 51°58' E 001°18'0 0.0
2018-Feb-17 22:58N 51°58' E 001°18'0 0.0
2018-Feb-17 22:28N 51°58' E 001°18'0 0.1
2018-Feb-17 21:58N 51°58' E 001°18'0 0.2
2018-Feb-17 21:26N 51°58' E 001°18'1 1.6
2018-Feb-17 21:00N 51°57' E 001°18'3 6.0
2018-Feb-17 20:30N 51°56' E 001°23'713.7
2018-Feb-17 20:00N 51°55' E 001°34'5 9.6
2018-Feb-17 19:31N 51°52' E 001°40'2 3.0
2018-Feb-17 19:00N 51°51' E 001°42'3 5.3
2018-Feb-17 18:28N 51°54' E 001°42'0 0.1
2018-Feb-17 17:58N 51°54' E 001°42'0 0.0
2018-Feb-17 17:28N 51°54' E 001°42'0 0.0
2018-Feb-17 16:58N 51°54' E 001°42'0 0.0
2018-Feb-17 16:28N 51°54' E 001°42'0 0.0
2018-Feb-17 15:58N 51°54' E 001°42'0 0.0
2018-Feb-17 15:28N 51°54' E 001°42'0 0.0
2018-Feb-17 14:58N 51°54' E 001°42'0 0.0
2018-Feb-17 14:28N 51°54' E 001°42'0 0.0
2018-Feb-17 13:58N 51°54' E 001°42'0 0.1
2018-Feb-17 13:28N 51°54' E 001°42'0 0.4
2018-Feb-17 12:58N 51°54' E 001°42'0 0.2
2018-Feb-17 12:28N 51°54' E 001°42'0 0.1
2018-Feb-17 11:58N 51°54' E 001°42'0 0.0
2018-Feb-17 11:28N 51°54' E 001°42'0 0.0
2018-Feb-17 10:58N 51°54' E 001°42'0 0.0
2018-Feb-17 10:28N 51°54' E 001°42'0 0.0
2018-Feb-17 09:58N 51°54' E 001°42'0 0.0
2018-Feb-17 09:28N 51°54' E 001°42'0 0.0
2018-Feb-17 08:58N 51°54' E 001°42'0 0.0
2018-Feb-17 08:28N 51°54' E 001°42'0 0.1
2018-Feb-17 07:58N 51°54' E 001°42'0 0.3
2018-Feb-17 07:28N 51°54' E 001°42'0 0.4
2018-Feb-17 06:58N 51°54' E 001°42'0 0.1
2018-Feb-17 06:28N 51°54' E 001°42'0 0.0
2018-Feb-17 05:58N 51°54' E 001°42'0 0.0
2018-Feb-17 05:28N 51°54' E 001°42'0 0.0
2018-Feb-17 04:58N 51°54' E 001°42'0 0.0
2018-Feb-17 04:28N 51°54' E 001°42'0 0.0
2018-Feb-17 03:58N 51°54' E 001°42'0 0.0
2018-Feb-17 03:28N 51°54' E 001°42'0 0.0
2018-Feb-17 02:58N 51°54' E 001°42'0 0.0
2018-Feb-17 02:28N 51°54' E 001°42'0 0.0
2018-Feb-17 01:58N 51°54' E 001°42'0 0.0
2018-Feb-17 01:28N 51°54' E 001°42'0 0.1
2018-Feb-17 00:58N 51°54' E 001°42'0 0.4
2018-Feb-17 00:28N 51°54' E 001°42'0 0.2
2018-Feb-16 23:58N 51°54' E 001°42'0 0.1
2018-Feb-16 23:28N 51°54' E 001°42'0 0.0
2018-Feb-16 22:58N 51°54' E 001°42'0 0.0
2018-Feb-16 22:28N 51°54' E 001°42'0 0.0
2018-Feb-16 21:58N 51°54' E 001°42'0 0.0
2018-Feb-16 21:28N 51°54' E 001°42'0 0.0
2018-Feb-16 20:58N 51°54' E 001°42'0 0.0
2018-Feb-16 20:28N 51°54' E 001°42'0 0.0
2018-Feb-16 19:58N 51°54' E 001°42'0 0.3
2018-Feb-16 19:28N 51°54' E 001°42'0 0.4
2018-Feb-16 18:58N 51°54' E 001°42'0 0.1
2018-Feb-16 18:31N 51°54' E 001°42'0 0.0
2018-Feb-16 18:01N 51°54' E 001°42'0 0.0
2018-Feb-16 17:31N 51°54' E 001°42'0 0.0
2018-Feb-16 17:00N 51°54' E 001°42'0 0.0
2018-Feb-16 16:30N 51°54' E 001°42'0 0.0
2018-Feb-16 16:00N 51°54' E 001°42'0 0.0
2018-Feb-16 15:30N 51°54' E 001°42'0 0.0
2018-Feb-16 15:00N 51°54' E 001°42'0 0.0
2018-Feb-16 14:30N 51°54' E 001°42'0 0.0
2018-Feb-16 14:00N 51°54' E 001°42'0 0.0
2018-Feb-16 13:30N 51°54' E 001°42'0 0.0
2018-Feb-16 13:00N 51°54' E 001°42'0 0.3
2018-Feb-16 12:30N 51°54' E 001°42'0 0.4
2018-Feb-16 12:00N 51°54' E 001°42'0 0.1
2018-Feb-16 11:30N 51°54' E 001°42'0 0.0
2018-Feb-16 11:00N 51°54' E 001°42'0 0.0
2018-Feb-16 10:30N 51°54' E 001°42'0 0.0
2018-Feb-16 10:00N 51°54' E 001°42'0 0.0
2018-Feb-16 09:30N 51°54' E 001°42'0 0.0
2018-Feb-16 09:00N 51°54' E 001°42'0 0.0
2018-Feb-16 08:30N 51°54' E 001°42'0 0.0
2018-Feb-16 08:00N 51°54' E 001°42'0 0.2
2018-Feb-16 07:30N 51°54' E 001°42'0 0.9
2018-Feb-16 07:00N 51°54' E 001°43'3 6.0
2018-Feb-16 06:30N 51°53' E 001°47'5 9.7
2018-Feb-16 06:00N 51°48' E 001°50'611.2
2018-Feb-16 05:30N 51°43' E 001°50'511.0
2018-Feb-16 05:00N 51°37' E 001°51'510.4
2018-Feb-16 04:30N 51°32' E 001°54'611.2
2018-Feb-16 04:01N 51°28' E 001°60'611.6
2018-Feb-16 03:30N 51°23' E 002°05'611.2
2018-Feb-16 03:00N 51°18' E 002°07'611.2
2018-Feb-16 02:30N 51°13' E 002°02'714.1
2018-Feb-16 02:01N 51°10' E 001°52'714.9
2018-Feb-16 01:31N 51°06' E 001°42'715.0
2018-Feb-16 01:01N 51°01' E 001°33'815.4
2018-Feb-16 00:30N 50°54' E 001°27'813.7
2018-Feb-15 23:56N 50°47' E 001°24'613.5
2018-Feb-15 23:30N 50°42' E 001°20'913.3
2018-Feb-15 22:52N 50°36' E 001°10'613.2
2018-Feb-15 22:26N 50°32' E 001°03'613.4
2018-Feb-15 22:00N 50°30' E 000°54'713.8
2018-Feb-15 21:30N 50°28' E 000°44'814.1
2018-Feb-15 20:56N 50°26' E 000°32'714.4
2018-Feb-15 20:29N 50°24' E 000°22'714.4
2018-Feb-15 20:00N 50°23' E 000°11'714.1
2018-Feb-15 19:30N 50°21' E 000°00'816.5
2018-Feb-15 19:00N 50°18' W 000°12'1019.1
2018-Feb-15 18:31N 50°16' W 000°26'1121.7
2018-Feb-15 18:00N 50°12' W 000°43'1021.3
2018-Feb-15 17:30N 50°10' W 000°58'1020.6
2018-Feb-15 17:00N 50°07' W 001°14'1020.0
2018-Feb-15 16:30N 50°05' W 001°29'1019.3
2018-Feb-15 16:01N 50°02' W 001°43'918.7
2018-Feb-15 15:30N 49°60' W 001°57'918.0
2018-Feb-15 15:00N 49°57' W 002°11'1018.0
2018-Feb-15 14:26N 49°54' W 002°26'2418.4
2018-Feb-15 13:08N 49°48' W 003°02'318.8
2018-Feb-15 12:59N 49°46' W 003°06'918.8
2018-Feb-15 12:30N 49°42' W 003°18'8218.9
2018-Feb-15 08:10N 48°59' W 005°06'319.3
2018-Feb-15 08:00N 48°58' W 005°10'919.2
2018-Feb-15 07:30N 48°52' W 005°22'1019.7
2018-Feb-15 07:00N 48°47' W 005°34'1019.5
2018-Feb-15 06:29N 48°39' W 005°44'1119.9
2018-Feb-15 05:55N 48°29' W 005°52'1120.2
2018-Feb-15 05:21N 48°19' W 005°60'920.5
2018-Feb-15 04:56N 48°12' W 006°06'920.7
2018-Feb-15 04:30N 48°04' W 006°12'1221.1
2018-Feb-15 03:57N 47°53' W 006°20'1021.2
2018-Feb-15 03:28N 47°44' W 006°27'  
Track history (hours):
 
Tides and Currents Weather Stations Pressure Air Temp Water Temp Dewpoint Dewpoint Depression Visibility Wind Speed Wind Dir Waves Ship Positions

MSC Ingrid

Last reported at 2018-Feb-24 06:30 UTC. Time now 2018-Feb-24 06:37 UTC.
Position N 37°59' W 009°55'.

Length 294 m; draft 12.8 m.

Type: Ship (hazmat cat A). MMSI: 354505000.

Date/timePositionNaut miles runAvg speedWind from/ knotsBaromVisibWave heightAir tempDewpointWater temp
2018-Feb-24 06:30N 37°59' W 009°55'1020.3
2018-Feb-24 06:00N 38°09' W 009°58'1020.5
2018-Feb-24 05:30N 38°19' W 010°02'1020.6
2018-Feb-24 05:00N 38°28' W 010°04'1120.1
2018-Feb-24 04:28N 38°39' W 010°06'920.0
2018-Feb-24 04:00N 38°48' W 010°07'1019.9
2018-Feb-24 03:31N 38°58' W 010°07'1020.5
2018-Feb-24 03:01N 39°08' W 010°06'1020.3
2018-Feb-24 02:30N 39°19' W 010°06'1120.3
2018-Feb-24 01:57N 39°30' W 010°06'4020.2
2018-Feb-23 23:58N 40°10' W 010°05'51019.6
2018-Feb-22 22:00N 48°14' W 006°22'3919.7
2018-Feb-22 20:01N 48°48' W 005°54'11420.1
2018-Feb-22 14:22N 49°48' W 003°27'720.0
2018-Feb-22 14:01N 49°52' W 003°17'714.2
2018-Feb-22 13:30N 49°55' W 003°07'815.2
2018-Feb-22 13:00N 49°58' W 002°56'919.0
2018-Feb-22 12:30N 50°01' W 002°42'1018.2
2018-Feb-22 11:57N 50°03' W 002°27'1617.5
2018-Feb-22 11:02N 50°07' W 002°02'117.7
2018-Feb-22 10:58N 50°07' W 002°01'817.7
2018-Feb-22 10:30N 50°10' W 001°49'918.4
2018-Feb-22 10:01N 50°12' W 001°35'1019.2
2018-Feb-22 09:30N 50°15' W 001°20'3421.0
2018-Feb-22 07:53N 50°24' W 000°29'821.6
2018-Feb-22 07:30N 50°26' W 000°17'1121.6
2018-Feb-22 07:01N 50°29' W 000°00'1121.5
2018-Feb-22 06:30N 50°32' E 000°16'1121.3
2018-Feb-22 06:01N 50°36' E 000°32'918.7
2018-Feb-22 05:31N 50°41' E 000°44'815.9
2018-Feb-22 05:01N 50°46' E 000°54'815.2
2018-Feb-22 04:30N 50°51' E 001°03'714.5
2018-Feb-22 04:00N 50°56' E 001°11'713.9
2018-Feb-22 03:30N 51°00' E 001°19'713.9
2018-Feb-22 03:01N 51°05' E 001°28'714.8
2018-Feb-22 02:30N 51°09' E 001°38'815.2
2018-Feb-22 02:00N 51°14' E 001°46'816.7
2018-Feb-22 01:30N 51°22' E 001°51'917.3
2018-Feb-22 01:00N 51°29' E 001°59'1020.6
2018-Feb-22 00:31N 51°36' E 002°11'1121.8
2018-Feb-22 00:00N 51°45' E 002°23'5219.5
2018-Feb-21 21:21N 52°04' E 003°40'616.7
2018-Feb-21 21:00N 52°05' E 003°50'3 5.8
2018-Feb-21 20:30N 52°05' E 003°54'4 7.6
2018-Feb-21 20:00N 52°01' E 003°57'611.6
2018-Feb-21 19:30N 51°58' E 004°05'1 2.4
2018-Feb-21 19:00N 51°58' E 004°04'0 0.4
2018-Feb-21 18:30N 51°58' E 004°04'0 0.0
2018-Feb-21 18:00N 51°58' E 004°04'0 0.0
2018-Feb-21 17:30N 51°58' E 004°04'0 0.0
2018-Feb-21 17:00N 51°58' E 004°04'0 0.0
2018-Feb-21 16:30N 51°58' E 004°04'0 0.0
2018-Feb-21 16:00N 51°58' E 004°04'0 0.0
2018-Feb-21 15:30N 51°58' E 004°04'0 0.0
2018-Feb-21 15:00N 51°58' E 004°04'0 0.1
2018-Feb-21 14:30N 51°58' E 004°04'0 0.0
2018-Feb-21 14:00N 51°58' E 004°04'0 0.0
2018-Feb-21 13:30N 51°58' E 004°04'0 0.0
2018-Feb-21 13:00N 51°58' E 004°04'0 0.0
2018-Feb-21 12:30N 51°58' E 004°04'0 0.0
2018-Feb-21 12:00N 51°58' E 004°04'0 0.0
2018-Feb-21 11:30N 51°58' E 004°04'0 0.0
2018-Feb-21 11:00N 51°58' E 004°04'0 0.0
2018-Feb-21 10:30N 51°58' E 004°04'0 0.0
2018-Feb-21 10:00N 51°58' E 004°04'0 0.0
2018-Feb-21 09:30N 51°58' E 004°04'0 0.0
2018-Feb-21 09:00N 51°58' E 004°04'0 0.0
2018-Feb-21 08:30N 51°58' E 004°04'0 0.0
2018-Feb-21 08:00N 51°58' E 004°04'0 0.0
2018-Feb-21 07:30N 51°58' E 004°04'0 0.0
2018-Feb-21 07:00N 51°58' E 004°04'0 0.0
2018-Feb-21 06:30N 51°58' E 004°04'0 0.0
2018-Feb-21 06:00N 51°58' E 004°04'0 0.0
2018-Feb-21 05:30N 51°58' E 004°04'0 0.0
2018-Feb-21 05:00N 51°58' E 004°04'0 0.0
2018-Feb-21 04:30N 51°58' E 004°04'0 0.0
2018-Feb-21 04:00N 51°58' E 004°04'0 0.0
2018-Feb-21 03:30N 51°58' E 004°04'0 0.0
2018-Feb-21 03:00N 51°58' E 004°04'0 0.0
2018-Feb-21 02:30N 51°58' E 004°04'0 0.0
2018-Feb-21 02:00N 51°58' E 004°04'0 0.0
2018-Feb-21 01:30N 51°58' E 004°04'0 0.0
2018-Feb-21 01:00N 51°58' E 004°04'0 0.0
2018-Feb-21 00:30N 51°58' E 004°04'0 0.0
2018-Feb-21 00:00N 51°58' E 004°04'0 0.0
2018-Feb-20 23:30N 51°58' E 004°04'0 0.0
2018-Feb-20 23:00N 51°58' E 004°04'0 0.0
2018-Feb-20 22:30N 51°58' E 004°04'0 0.0
2018-Feb-20 22:00N 51°58' E 004°04'0 0.0
2018-Feb-20 21:30N 51°58' E 004°04'0 0.0
2018-Feb-20 21:00N 51°58' E 004°04'0 0.0
2018-Feb-20 20:30N 51°58' E 004°04'0 0.0
2018-Feb-20 20:00N 51°58' E 004°04'0 0.0
2018-Feb-20 19:30N 51°58' E 004°04'0 0.0
2018-Feb-20 19:00N 51°58' E 004°04'0 0.0
2018-Feb-20 18:30N 51°58' E 004°04'0 0.0
2018-Feb-20 18:00N 51°58' E 004°04'0 0.0
2018-Feb-20 17:30N 51°58' E 004°04'0 0.0
2018-Feb-20 17:00N 51°58' E 004°04'0 0.0
2018-Feb-20 16:30N 51°58' E 004°04'0 0.0
2018-Feb-20 16:00N 51°58' E 004°04'0 0.0
2018-Feb-20 15:30N 51°58' E 004°04'1 1.8
2018-Feb-20 15:00N 51°58' E 004°05'4 8.9
2018-Feb-20 14:30N 52°00' E 003°59'713.8
2018-Feb-20 14:00N 52°01' E 003°48'510.1
2018-Feb-20 13:30N 51°59' E 003°40'713.2
2018-Feb-20 13:00N 51°56' E 003°31'1812.6
2018-Feb-20 11:36N 51°42' E 003°13'211.8
2018-Feb-20 11:25N 51°40' E 003°13'716.8
2018-Feb-20 11:00N 51°34' E 003°09'816.1
2018-Feb-20 10:31N 51°28' E 003°01'510.9
2018-Feb-20 10:00N 51°24' E 003°07'917.8
2018-Feb-20 09:30N 51°24' E 003°21'815.8
2018-Feb-20 09:00N 51°26' E 003°34'611.6
2018-Feb-20 08:30N 51°24' E 003°43'715.0
2018-Feb-20 08:00N 51°22' E 003°54'611.8
2018-Feb-20 07:31N 51°25' E 004°02'611.3
2018-Feb-20 07:01N 51°24' E 004°11'611.0
2018-Feb-20 06:30N 51°19' E 004°16'1 2.9
2018-Feb-20 06:00N 51°18' E 004°16'0 0.0
2018-Feb-20 05:30N 51°18' E 004°16'0 0.0
2018-Feb-20 05:00N 51°18' E 004°16'0 0.0
2018-Feb-20 04:30N 51°18' E 004°16'0 0.0
2018-Feb-20 04:00N 51°18' E 004°16'0 0.0
2018-Feb-20 03:30N 51°18' E 004°16'0 0.0
2018-Feb-20 03:00N 51°18' E 004°16'0 0.0
2018-Feb-20 02:30N 51°18' E 004°16'0 0.0
2018-Feb-20 02:00N 51°18' E 004°16'0 0.0
2018-Feb-20 01:30N 51°18' E 004°16'0 0.0
2018-Feb-20 01:00N 51°18' E 004°16'0 0.0
2018-Feb-20 00:30N 51°18' E 004°16'0 0.0
2018-Feb-20 00:00N 51°18' E 004°16'0 0.0
2018-Feb-19 23:30N 51°18' E 004°16'0 0.0
2018-Feb-19 23:00N 51°18' E 004°16'0 0.0
2018-Feb-19 22:30N 51°18' E 004°16'0 0.0
2018-Feb-19 22:00N 51°18' E 004°16'0 0.1
2018-Feb-19 21:30N 51°18' E 004°16'0 0.1
2018-Feb-19 21:00N 51°18' E 004°16'0 0.0
2018-Feb-19 20:30N 51°18' E 004°16'0 0.0
2018-Feb-19 20:00N 51°18' E 004°16'0 0.0
2018-Feb-19 19:30N 51°18' E 004°16'0 0.1
2018-Feb-19 19:00N 51°18' E 004°16'0 0.0
2018-Feb-19 18:30N 51°18' E 004°16'0 0.0
2018-Feb-19 18:00N 51°18' E 004°16'0 0.0
2018-Feb-19 17:30N 51°18' E 004°16'0 0.0
2018-Feb-19 17:00N 51°18' E 004°16'0 0.0
2018-Feb-19 16:30N 51°18' E 004°16'0 0.0
2018-Feb-19 16:00N 51°18' E 004°16'0 0.0
2018-Feb-19 15:30N 51°18' E 004°16'0 0.0
2018-Feb-19 15:00N 51°18' E 004°16'0 0.0
2018-Feb-19 14:30N 51°18' E 004°16'0 0.0
2018-Feb-19 14:00N 51°18' E 004°16'0 0.0
2018-Feb-19 13:30N 51°18' E 004°16'0 0.0
2018-Feb-19 13:00N 51°18' E 004°16'0 0.0
2018-Feb-19 12:30N 51°18' E 004°16'0 0.1
2018-Feb-19 12:00N 51°18' E 004°16'0 0.1
2018-Feb-19 11:30N 51°18' E 004°16'0 0.0
2018-Feb-19 11:00N 51°18' E 004°16'0 0.0
2018-Feb-19 10:30N 51°18' E 004°16'0 0.0
2018-Feb-19 10:00N 51°18' E 004°16'0 0.1
2018-Feb-19 09:30N 51°18' E 004°16'0 0.1
2018-Feb-19 09:00N 51°18' E 004°16'0 0.0
2018-Feb-19 08:30N 51°18' E 004°16'0 0.0
2018-Feb-19 08:00N 51°18' E 004°16'0 0.1
2018-Feb-19 07:30N 51°18' E 004°16'0 0.0
2018-Feb-19 07:00N 51°18' E 004°16'0 0.1
2018-Feb-19 06:30N 51°18' E 004°16'0 0.0
2018-Feb-19 06:00N 51°18' E 004°16'0 0.0
2018-Feb-19 05:30N 51°18' E 004°16'0 0.0
2018-Feb-19 05:00N 51°18' E 004°16'0 0.0
2018-Feb-19 04:30N 51°18' E 004°16'0 0.0
2018-Feb-19 04:00N 51°18' E 004°16'0 0.0
2018-Feb-19 03:30N 51°18' E 004°16'0 0.0
2018-Feb-19 03:00N 51°18' E 004°16'0 0.0
2018-Feb-19 02:30N 51°18' E 004°16'0 0.0
2018-Feb-19 02:00N 51°18' E 004°16'0 0.0
2018-Feb-19 01:30N 51°18' E 004°16'0 0.0
2018-Feb-19 01:00N 51°18' E 004°16'0 0.1
2018-Feb-19 00:30N 51°18' E 004°16'0 0.0
2018-Feb-19 00:00N 51°18' E 004°16'0 0.0
2018-Feb-18 23:30N 51°18' E 004°16'0 0.0
2018-Feb-18 23:00N 51°18' E 004°16'0 0.0
2018-Feb-18 22:30N 51°18' E 004°16'0 0.0
2018-Feb-18 22:00N 51°18' E 004°16'0 0.1
2018-Feb-18 21:30N 51°18' E 004°16'0 0.1
2018-Feb-18 21:00N 51°18' E 004°16'0 0.0
2018-Feb-18 20:30N 51°18' E 004°16'0 0.0
2018-Feb-18 20:00N 51°18' E 004°16'1 1.5
2018-Feb-18 19:30N 51°19' E 004°16'3 5.7
2018-Feb-18 19:00N 51°21' E 004°14'4 7.6
2018-Feb-18 18:30N 51°22' E 004°08'5 9.1
2018-Feb-18 18:00N 51°24' E 004°02'3 6.2
2018-Feb-18 17:30N 51°23' E 003°57'510.8
2018-Feb-18 17:00N 51°21' E 003°50'612.1
2018-Feb-18 16:31N 51°25' E 003°43'510.6
2018-Feb-18 16:00N 51°25' E 003°34'510.3
2018-Feb-18 15:30N 51°25' E 003°26'611.9
2018-Feb-18 15:00N 51°24' E 003°16'714.0
2018-Feb-18 14:30N 51°24' E 003°05'611.8
2018-Feb-18 14:01N 51°22' E 002°56'714.2
2018-Feb-18 13:30N 51°22' E 002°45'4 8.1
2018-Feb-18 13:00N 51°22' E 002°38'4 8.4
2018-Feb-18 12:29N 51°22' E 002°32'713.6
2018-Feb-18 12:01N 51°20' E 002°22'714.0
2018-Feb-18 11:30N 51°19' E 002°11'714.2
2018-Feb-18 11:00N 51°22' E 002°01'815.7
2018-Feb-18 10:30N 51°28' E 001°52'918.5
2018-Feb-18 10:00N 51°37' E 001°47'1019.1
2018-Feb-18 09:31N 51°46' E 001°44'713.7
2018-Feb-18 09:00N 51°51' E 001°37'510.9
2018-Feb-18 08:31N 51°56' E 001°32'714.4
2018-Feb-18 08:01N 51°55' E 001°21'3 5.2
2018-Feb-18 07:29N 51°58' E 001°18'0 0.0
2018-Feb-18 06:59N 51°58' E 001°18'0 0.0
2018-Feb-18 06:29N 51°58' E 001°18'0 0.0
2018-Feb-18 05:59N 51°58' E 001°18'0 0.0
2018-Feb-18 05:29N 51°58' E 001°18'0 0.0
2018-Feb-18 04:58N 51°58' E 001°18'0 0.0
2018-Feb-18 04:28N 51°58' E 001°18'0 0.0
2018-Feb-18 03:58N 51°58' E 001°18'0 0.0
2018-Feb-18 03:28N 51°58' E 001°18'0 0.0
2018-Feb-18 02:58N 51°58' E 001°18'0 0.0
2018-Feb-18 02:28N 51°58' E 001°18'0 0.0
2018-Feb-18 01:58N 51°58' E 001°18'0 0.0
2018-Feb-18 01:28N 51°58' E 001°18'0 0.0
2018-Feb-18 00:58N 51°58' E 001°18'0 0.0
2018-Feb-18 00:28N 51°58' E 001°18'0 0.0
2018-Feb-17 23:58N 51°58' E 001°18'0 0.0
2018-Feb-17 23:28N 51°58' E 001°18'0 0.0
2018-Feb-17 22:58N 51°58' E 001°18'0 0.0
2018-Feb-17 22:28N 51°58' E 001°18'0 0.1
2018-Feb-17 21:58N 51°58' E 001°18'0 0.2
2018-Feb-17 21:26N 51°58' E 001°18'1 1.6
2018-Feb-17 21:00N 51°57' E 001°18'3 6.0
2018-Feb-17 20:30N 51°56' E 001°23'713.7
2018-Feb-17 20:00N 51°55' E 001°34'5 9.6
2018-Feb-17 19:31N 51°52' E 001°40'2 3.0
2018-Feb-17 19:00N 51°51' E 001°42'3 5.3
2018-Feb-17 18:28N 51°54' E 001°42'0 0.1
2018-Feb-17 17:58N 51°54' E 001°42'0 0.0
2018-Feb-17 17:28N 51°54' E 001°42'0 0.0
2018-Feb-17 16:58N 51°54' E 001°42'0 0.0
2018-Feb-17 16:28N 51°54' E 001°42'0 0.0
2018-Feb-17 15:58N 51°54' E 001°42'0 0.0
2018-Feb-17 15:28N 51°54' E 001°42'0 0.0
2018-Feb-17 14:58N 51°54' E 001°42'0 0.0
2018-Feb-17 14:28N 51°54' E 001°42'0 0.0
2018-Feb-17 13:58N 51°54' E 001°42'0 0.1
2018-Feb-17 13:28N 51°54' E 001°42'0 0.4
2018-Feb-17 12:58N 51°54' E 001°42'0 0.2
2018-Feb-17 12:28N 51°54' E 001°42'0 0.1
2018-Feb-17 11:58N 51°54' E 001°42'0 0.0
2018-Feb-17 11:28N 51°54' E 001°42'0 0.0
2018-Feb-17 10:58N 51°54' E 001°42'0 0.0
2018-Feb-17 10:28N 51°54' E 001°42'0 0.0
2018-Feb-17 09:58N 51°54' E 001°42'0 0.0
2018-Feb-17 09:28N 51°54' E 001°42'0 0.0
2018-Feb-17 08:58N 51°54' E 001°42'0 0.0
2018-Feb-17 08:28N 51°54' E 001°42'0 0.1
2018-Feb-17 07:58N 51°54' E 001°42'0 0.3
2018-Feb-17 07:28N 51°54' E 001°42'0 0.4
2018-Feb-17 06:58N 51°54' E 001°42'0 0.1
2018-Feb-17 06:28N 51°54' E 001°42'0 0.0
2018-Feb-17 05:58N 51°54' E 001°42'0 0.0
2018-Feb-17 05:28N 51°54' E 001°42'0 0.0
2018-Feb-17 04:58N 51°54' E 001°42'0 0.0
2018-Feb-17 04:28N 51°54' E 001°42'0 0.0
2018-Feb-17 03:58N 51°54' E 001°42'0 0.0
2018-Feb-17 03:28N 51°54' E 001°42'0 0.0
2018-Feb-17 02:58N 51°54' E 001°42'0 0.0
2018-Feb-17 02:28N 51°54' E 001°42'0 0.0
2018-Feb-17 01:58N 51°54' E 001°42'0 0.0
2018-Feb-17 01:28N 51°54' E 001°42'0 0.1
2018-Feb-17 00:58N 51°54' E 001°42'0 0.4
2018-Feb-17 00:28N 51°54' E 001°42'0 0.2
2018-Feb-16 23:58N 51°54' E 001°42'0 0.1
2018-Feb-16 23:28N 51°54' E 001°42'0 0.0
2018-Feb-16 22:58N 51°54' E 001°42'0 0.0
2018-Feb-16 22:28N 51°54' E 001°42'0 0.0
2018-Feb-16 21:58N 51°54' E 001°42'0 0.0
2018-Feb-16 21:28N 51°54' E 001°42'0 0.0
2018-Feb-16 20:58N 51°54' E 001°42'0 0.0
2018-Feb-16 20:28N 51°54' E 001°42'0 0.0
2018-Feb-16 19:58N 51°54' E 001°42'0 0.3
2018-Feb-16 19:28N 51°54' E 001°42'0 0.4
2018-Feb-16 18:58N 51°54' E 001°42'0 0.1
2018-Feb-16 18:31N 51°54' E 001°42'0 0.0
2018-Feb-16 18:01N 51°54' E 001°42'0 0.0
2018-Feb-16 17:31N 51°54' E 001°42'0 0.0
2018-Feb-16 17:00N 51°54' E 001°42'0 0.0
2018-Feb-16 16:30N 51°54' E 001°42'0 0.0
2018-Feb-16 16:00N 51°54' E 001°42'0 0.0
2018-Feb-16 15:30N 51°54' E 001°42'0 0.0
2018-Feb-16 15:00N 51°54' E 001°42'0 0.0
2018-Feb-16 14:30N 51°54' E 001°42'0 0.0
2018-Feb-16 14:00N 51°54' E 001°42'0 0.0
2018-Feb-16 13:30N 51°54' E 001°42'0 0.0
2018-Feb-16 13:00N 51°54' E 001°42'0 0.3
2018-Feb-16 12:30N 51°54' E 001°42'0 0.4
2018-Feb-16 12:00N 51°54' E 001°42'0 0.1
2018-Feb-16 11:30N 51°54' E 001°42'0 0.0
2018-Feb-16 11:00N 51°54' E 001°42'0 0.0
2018-Feb-16 10:30N 51°54' E 001°42'0 0.0
2018-Feb-16 10:00N 51°54' E 001°42'0 0.0
2018-Feb-16 09:30N 51°54' E 001°42'0 0.0
2018-Feb-16 09:00N 51°54' E 001°42'0 0.0
2018-Feb-16 08:30N 51°54' E 001°42'0 0.0
2018-Feb-16 08:00N 51°54' E 001°42'0 0.2
2018-Feb-16 07:30N 51°54' E 001°42'0 0.9
2018-Feb-16 07:00N 51°54' E 001°43'3 6.0
2018-Feb-16 06:30N 51°53' E 001°47'5 9.7
2018-Feb-16 06:00N 51°48' E 001°50'611.2
2018-Feb-16 05:30N 51°43' E 001°50'511.0
2018-Feb-16 05:00N 51°37' E 001°51'510.4
2018-Feb-16 04:30N 51°32' E 001°54'611.2
2018-Feb-16 04:01N 51°28' E 001°60'611.6
2018-Feb-16 03:30N 51°23' E 002°05'611.2
2018-Feb-16 03:00N 51°18' E 002°07'611.2
2018-Feb-16 02:30N 51°13' E 002°02'714.1
2018-Feb-16 02:01N 51°10' E 001°52'714.9
2018-Feb-16 01:31N 51°06' E 001°42'715.0
2018-Feb-16 01:01N 51°01' E 001°33'815.4
2018-Feb-16 00:30N 50°54' E 001°27'813.7
2018-Feb-15 23:56N 50°47' E 001°24'613.5
2018-Feb-15 23:30N 50°42' E 001°20'913.3
2018-Feb-15 22:52N 50°36' E 001°10'613.2
2018-Feb-15 22:26N 50°32' E 001°03'613.4
2018-Feb-15 22:00N 50°30' E 000°54'713.8
2018-Feb-15 21:30N 50°28' E 000°44'814.1
2018-Feb-15 20:56N 50°26' E 000°32'714.4
2018-Feb-15 20:29N 50°24' E 000°22'714.4
2018-Feb-15 20:00N 50°23' E 000°11'714.1
2018-Feb-15 19:30N 50°21' E 000°00'816.5
2018-Feb-15 19:00N 50°18' W 000°12'1019.1
2018-Feb-15 18:31N 50°16' W 000°26'1121.7
2018-Feb-15 18:00N 50°12' W 000°43'1021.3
2018-Feb-15 17:30N 50°10' W 000°58'1020.6
2018-Feb-15 17:00N 50°07' W 001°14'1020.0
2018-Feb-15 16:30N 50°05' W 001°29'1019.3
2018-Feb-15 16:01N 50°02' W 001°43'918.7
2018-Feb-15 15:30N 49°60' W 001°57'918.0
2018-Feb-15 15:00N 49°57' W 002°11'1018.0
2018-Feb-15 14:26N 49°54' W 002°26'2418.4
2018-Feb-15 13:08N 49°48' W 003°02'318.8
2018-Feb-15 12:59N 49°46' W 003°06'918.8
2018-Feb-15 12:30N 49°42' W 003°18'8218.9
2018-Feb-15 08:10N 48°59' W 005°06'319.3
2018-Feb-15 08:00N 48°58' W 005°10'919.2
2018-Feb-15 07:30N 48°52' W 005°22'1019.7
2018-Feb-15 07:00N 48°47' W 005°34'1019.5
2018-Feb-15 06:29N 48°39' W 005°44'1119.9
2018-Feb-15 05:55N 48°29' W 005°52'1120.2
2018-Feb-15 05:21N 48°19' W 005°60'920.5
2018-Feb-15 04:56N 48°12' W 006°06'920.7
2018-Feb-15 04:30N 48°04' W 006°12'1221.1
2018-Feb-15 03:57N 47°53' W 006°20'1021.2
2018-Feb-15 03:28N 47°44' W 006°27'  

Dump ship's entire track history